createdAt,value
2023-02-21T00:02:02.549Z,56.00
2023-02-21T00:04:49.012Z,52.10
2023-02-21T00:07:34.475Z,54.10
2023-02-21T00:10:20.045Z,60.60
2023-02-21T00:13:06.484Z,59.13
2023-02-21T00:15:52.420Z,58.33
2023-02-21T00:18:38.443Z,64.50
2023-02-21T00:21:24.463Z,60.87
2023-02-21T00:24:10.192Z,56.30
2023-02-21T00:26:55.602Z,47.33
2023-02-21T00:29:41.237Z,42.90
2023-02-21T00:32:27.071Z,48.90
2023-02-21T00:35:12.756Z,47.20
2023-02-21T00:37:58.411Z,55.20
2023-02-21T00:40:44.396Z,56.70
2023-02-21T00:43:29.803Z,53.47
2023-02-21T00:46:15.788Z,46.40
2023-02-21T00:49:01.374Z,58.23
2023-02-21T00:51:47.059Z,46.33
2023-02-21T00:54:32.623Z,52.93
2023-02-21T00:57:18.036Z,44.77
2023-02-21T01:00:03.714Z,54.10
2023-02-21T01:02:52.295Z,46.47
2023-02-21T01:05:37.845Z,45.20
2023-02-21T01:08:23.552Z,48.97
2023-02-21T01:11:09.355Z,53.97
2023-02-21T01:13:54.848Z,47.27
2023-02-21T01:16:40.517Z,59.10
2023-02-21T01:19:25.993Z,48.13
2023-02-21T01:22:11.677Z,53.83
2023-02-21T01:24:57.253Z,53.53
2023-02-21T01:27:43.088Z,53.07
2023-02-21T01:30:29.313Z,44.77
2023-02-21T01:33:14.748Z,54.37
2023-02-21T01:36:00.857Z,46.87
2023-02-21T01:38:47.034Z,59.78
2023-02-21T01:41:32.410Z,48.73
2023-02-21T01:44:24.460Z,49.17
2023-02-21T01:47:10.070Z,48.90
2023-02-21T01:49:59.696Z,46.70
2023-02-21T01:52:45.765Z,50.63
2023-02-21T01:55:31.524Z,53.17
2023-02-21T01:58:17.710Z,55.77
2023-02-21T02:01:03.672Z,45.77
2023-02-21T02:03:50.452Z,54.77
2023-02-21T02:06:36.978Z,58.60
2023-02-21T02:09:41.712Z,51.67
2023-02-21T02:12:23.721Z,48.17
2023-02-21T02:15:18.816Z,52.33
2023-02-21T02:18:07.343Z,46.47
2023-02-21T02:21:25.107Z,50.77
2023-02-21T02:24:01.137Z,47.20
2023-02-21T02:27:16.221Z,46.15
2023-02-21T02:29:52.323Z,47.70
2023-02-21T02:32:47.252Z,52.00
2023-02-21T02:35:23.240Z,45.10
2023-02-21T02:37:59.300Z,46.90
2023-02-21T02:40:35.544Z,46.25
2023-02-21T02:43:34.556Z,52.00
2023-02-21T02:46:34.481Z,50.43
2023-02-21T02:49:16.672Z,48.40
2023-02-21T02:51:44.548Z,47.10
2023-02-21T02:54:12.537Z,42.03
2023-02-21T02:56:40.376Z,39.87
2023-02-21T02:59:13.801Z,42.33
2023-02-21T03:01:50.227Z,49.33
2023-02-21T03:04:45.279Z,44.58
2023-02-21T03:07:22.790Z,33.93
2023-02-21T03:10:05.245Z,36.27
2023-02-21T03:13:02.686Z,47.47
2023-02-21T03:15:35.378Z,46.13
2023-02-21T03:18:17.622Z,43.93
2023-02-21T03:20:49.520Z,46.63
2023-02-21T03:23:21.598Z,36.47
2023-02-21T03:25:51.569Z,40.60
2023-02-21T03:28:20.481Z,38.13
2023-02-21T03:30:52.683Z,38.27
2023-02-21T03:33:20.328Z,41.20
2023-02-21T03:35:47.578Z,43.07
2023-02-21T03:38:15.152Z,45.70
2023-02-21T03:40:42.485Z,47.27
2023-02-21T03:43:09.668Z,49.33
2023-02-21T03:45:45.511Z,48.20
2023-02-21T03:48:20.278Z,48.30
2023-02-21T03:50:53.870Z,46.27
2023-02-21T03:53:21.983Z,48.63
2023-02-21T03:55:49.142Z,49.13
2023-02-21T03:58:21.667Z,51.70
2023-02-21T04:00:49.923Z,42.40
2023-02-21T04:03:17.949Z,42.67
2023-02-21T04:05:51.656Z,48.03
2023-02-21T04:08:18.832Z,46.23
2023-02-21T04:10:52.038Z,49.03
2023-02-21T04:13:23.809Z,45.63
2023-02-21T04:15:51.937Z,40.13
2023-02-21T04:18:19.184Z,39.90
2023-02-21T04:20:48.500Z,37.70
2023-02-21T04:23:22.593Z,42.03
2023-02-21T04:25:50.251Z,43.20
2023-02-21T04:28:24.748Z,42.80
2023-02-21T04:30:51.801Z,44.10
2023-02-21T04:33:19.825Z,58.33
2023-02-21T04:35:48.930Z,49.60
2023-02-21T04:38:24.153Z,36.77
2023-02-21T04:40:51.622Z,35.67
2023-02-21T04:43:18.822Z,31.17
2023-02-21T04:45:46.006Z,34.53
2023-02-21T04:48:13.198Z,48.20
2023-02-21T04:50:40.253Z,39.60
2023-02-21T04:53:07.310Z,42.13
2023-02-21T04:55:34.385Z,37.80
2023-02-21T04:58:01.518Z,50.87
2023-02-21T05:00:28.672Z,54.13
2023-02-21T05:02:55.880Z,43.93
2023-02-21T05:05:23.041Z,40.70
2023-02-21T05:07:50.139Z,36.40
2023-02-21T05:10:17.866Z,37.07
2023-02-21T05:12:45.382Z,46.43
2023-02-21T05:15:13.595Z,49.47
2023-02-21T05:17:40.659Z,44.50
2023-02-21T05:20:12.024Z,43.67
2023-02-21T05:22:42.725Z,41.27
2023-02-21T05:25:21.754Z,44.47
2023-02-21T05:27:50.311Z,41.70
2023-02-21T05:30:20.080Z,39.20
2023-02-21T05:32:48.818Z,42.40
2023-02-21T05:35:16.915Z,40.40
2023-02-21T05:37:44.262Z,37.00
2023-02-21T05:40:13.022Z,37.13
2023-02-21T05:42:40.463Z,38.93
2023-02-21T05:45:08.002Z,41.50
2023-02-21T05:47:35.369Z,35.13
2023-02-21T05:50:04.110Z,38.87
2023-02-21T05:52:31.371Z,42.27
2023-02-21T05:54:58.806Z,33.17
2023-02-21T05:57:25.981Z,33.53
2023-02-21T05:59:53.072Z,38.83
2023-02-21T06:02:20.209Z,40.30
2023-02-21T06:04:47.294Z,35.80
2023-02-21T06:07:14.440Z,33.37
2023-02-21T06:09:44.480Z,38.77
2023-02-21T06:12:11.960Z,42.53
2023-02-21T06:14:39.132Z,35.60
2023-02-21T06:17:06.225Z,44.50
2023-02-21T06:19:33.606Z,45.47
2023-02-21T06:22:00.938Z,44.17
2023-02-21T06:24:28.124Z,40.87
2023-02-21T06:26:55.582Z,41.13
2023-02-21T06:29:22.826Z,39.53
2023-02-21T06:31:50.336Z,39.20
2023-02-21T06:34:17.543Z,34.13
2023-02-21T06:36:44.674Z,38.30
2023-02-21T06:39:12.965Z,40.87
2023-02-21T06:41:40.343Z,43.73
2023-02-21T06:44:07.513Z,38.83
2023-02-21T06:46:36.822Z,47.20
2023-02-21T06:49:05.054Z,48.37
2023-02-21T06:51:40.817Z,42.07
2023-02-21T06:54:08.268Z,40.37
2023-02-21T06:56:35.781Z,39.97
2023-02-21T06:59:03.838Z,35.60
2023-02-21T07:01:31.888Z,48.30
2023-02-21T07:03:59.671Z,40.07
2023-02-21T07:06:29.547Z,40.50
2023-02-21T07:08:57.274Z,39.20
2023-02-21T07:11:24.827Z,36.13
2023-02-21T07:13:57.091Z,37.50
2023-02-21T07:16:24.461Z,38.23
2023-02-21T07:18:51.774Z,41.40
2023-02-21T07:21:21.028Z,37.70
2023-02-21T07:23:48.843Z,36.80
2023-02-21T07:26:16.426Z,34.10
2023-02-21T07:28:43.857Z,41.50
2023-02-21T07:31:11.420Z,36.23
2023-02-21T07:33:38.620Z,37.50
2023-02-21T07:36:06.314Z,38.30
2023-02-21T07:38:33.800Z,32.07
2023-02-21T07:41:03.427Z,31.13
2023-02-21T07:43:31.332Z,31.93
2023-02-21T07:45:58.748Z,31.60
2023-02-21T07:48:26.206Z,28.47
2023-02-21T07:50:53.582Z,30.53
2023-02-21T07:53:20.709Z,28.93
2023-02-21T07:55:47.876Z,30.83
2023-02-21T07:58:15.450Z,28.43
2023-02-21T08:00:46.021Z,31.30
2023-02-21T08:03:14.222Z,29.07
2023-02-21T08:05:43.971Z,29.33
2023-02-21T08:08:11.248Z,27.07
2023-02-21T08:10:38.910Z,30.27
2023-02-21T08:13:06.531Z,27.03
2023-02-21T08:15:33.656Z,24.63
2023-02-21T08:18:00.804Z,26.23
2023-02-21T08:20:30.978Z,28.43
2023-02-21T08:22:58.288Z,30.97
2023-02-21T08:25:25.476Z,23.50
2023-02-21T08:27:55.486Z,25.33
2023-02-21T08:30:22.771Z,32.90
2023-02-21T08:32:51.479Z,30.33
2023-02-21T08:35:21.028Z,24.37
2023-02-21T08:37:50.416Z,29.30
2023-02-21T08:40:20.948Z,30.83
2023-02-21T08:42:52.795Z,36.73
2023-02-21T08:45:22.488Z,28.67
2023-02-21T08:47:50.760Z,35.50
2023-02-21T08:50:19.447Z,30.13
2023-02-21T08:52:49.931Z,22.30
2023-02-21T08:55:18.365Z,25.57
2023-02-21T08:57:47.851Z,29.03
2023-02-21T09:00:16.346Z,25.97
2023-02-21T09:02:43.826Z,24.37
2023-02-21T09:05:19.313Z,30.03
2023-02-21T09:07:49.855Z,35.47
2023-02-21T09:10:18.292Z,33.83
2023-02-21T09:12:45.639Z,32.73
2023-02-21T09:15:15.845Z,27.67
2023-02-21T09:17:43.350Z,28.73
2023-02-21T09:20:14.233Z,35.33
2023-02-21T09:22:45.245Z,30.20
2023-02-21T09:25:13.450Z,32.23
2023-02-21T09:27:41.141Z,26.60
2023-02-21T09:30:21.916Z,30.87
2023-02-21T09:32:49.480Z,30.13
2023-02-21T09:35:17.290Z,30.23
2023-02-21T09:37:45.879Z,28.70
2023-02-21T09:40:27.775Z,31.67
2023-02-21T09:42:58.842Z,29.10
2023-02-21T09:45:31.044Z,30.33
2023-02-21T09:48:01.526Z,29.67
2023-02-21T09:50:42.791Z,31.07
2023-02-21T09:53:13.560Z,26.37
2023-02-21T09:55:40.850Z,26.40
2023-02-21T09:58:15.941Z,26.27
2023-02-21T10:00:45.536Z,26.70
2023-02-21T10:03:36.539Z,30.57
2023-02-21T10:06:12.382Z,29.97
2023-02-21T10:08:44.371Z,27.53
2023-02-21T10:11:35.035Z,29.80
2023-02-21T10:14:20.958Z,28.30
2023-02-21T10:16:59.432Z,29.53
2023-02-21T10:19:32.169Z,30.00
2023-02-21T10:22:03.880Z,25.00
2023-02-21T10:24:31.440Z,25.07
2023-02-21T10:27:16.095Z,27.07
2023-02-21T10:29:52.381Z,30.83
2023-02-21T10:32:19.704Z,25.90
2023-02-21T10:34:48.532Z,28.73
2023-02-21T10:37:44.935Z,32.40
2023-02-21T10:40:41.789Z,26.83
2023-02-21T10:43:14.233Z,24.43
2023-02-21T10:45:46.700Z,29.63
2023-02-21T10:48:16.211Z,28.80
2023-02-21T10:50:51.643Z,29.53
2023-02-21T10:53:32.199Z,28.20
2023-02-21T10:56:30.055Z,26.33
2023-02-21T10:59:07.474Z,25.95
2023-02-21T11:01:46.113Z,31.20
2023-02-21T11:04:25.986Z,27.10
2023-02-21T11:07:09.706Z,24.50
2023-02-21T11:09:40.546Z,24.90
2023-02-21T11:12:19.937Z,22.73
2023-02-21T11:14:53.606Z,20.73
2023-02-21T11:17:28.830Z,24.57
2023-02-21T11:19:58.534Z,26.93
2023-02-21T11:22:36.545Z,25.00
2023-02-21T11:25:03.689Z,23.47
2023-02-21T11:27:33.905Z,29.90
2023-02-21T11:30:04.741Z,25.70
2023-02-21T11:32:37.786Z,24.20
2023-02-21T11:35:20.233Z,23.23
2023-02-21T11:37:54.115Z,24.77
2023-02-21T11:40:29.605Z,20.13
2023-02-21T11:43:31.259Z,26.00
2023-02-21T11:46:05.443Z,25.13
2023-02-21T11:48:45.114Z,26.00
2023-02-21T11:51:41.346Z,23.97
2023-02-21T11:54:08.490Z,26.13
2023-02-21T11:56:45.562Z,24.87
2023-02-21T11:59:36.781Z,25.47
2023-02-21T12:02:03.834Z,23.00
2023-02-21T12:04:48.867Z,26.20
2023-02-21T12:07:36.309Z,28.63
2023-02-21T12:10:26.214Z,26.33
2023-02-21T12:13:13.095Z,25.30
2023-02-21T12:16:22.260Z,22.58
2023-02-21T12:18:58.471Z,19.90
2023-02-21T12:21:49.911Z,23.38
2023-02-21T12:24:31.032Z,19.30
2023-02-21T12:27:56.092Z,17.20
2023-02-21T12:30:39.893Z,21.40
2023-02-21T12:33:26.095Z,17.07
2023-02-21T12:36:30.376Z,23.40
2023-02-21T12:39:00.833Z,24.90
2023-02-21T12:41:35.777Z,26.00
2023-02-21T12:44:28.589Z,19.80
2023-02-21T12:47:04.260Z,20.27
2023-02-21T12:49:52.704Z,23.97
2023-02-21T12:52:32.428Z,22.37
2023-02-21T12:55:04.669Z,22.17
2023-02-21T12:57:50.297Z,21.70
2023-02-21T13:00:37.795Z,26.27
2023-02-21T13:05:58.207Z,24.53
2023-02-21T13:08:37.192Z,24.30
2023-02-21T13:11:17.172Z,23.20
2023-02-21T13:13:45.092Z,30.43
2023-02-21T13:16:13.513Z,24.80
2023-02-21T13:18:46.315Z,22.30
2023-02-21T13:21:22.251Z,24.63
2023-02-21T13:24:28.652Z,22.87
2023-02-21T13:27:14.133Z,24.05
2023-02-21T13:29:42.719Z,24.37
2023-02-21T13:32:13.276Z,22.50
2023-02-21T13:34:47.050Z,22.97
2023-02-21T13:37:27.674Z,20.77
2023-02-21T13:40:01.850Z,17.73
2023-02-21T13:42:31.044Z,17.50
2023-02-21T13:45:23.438Z,18.43
2023-02-21T13:47:53.436Z,18.87
2023-02-21T13:50:38.738Z,18.63
2023-02-21T13:53:08.952Z,22.60
2023-02-21T13:55:37.487Z,18.53
2023-02-21T13:58:36.951Z,19.67
2023-02-21T14:01:16.460Z,18.93
2023-02-21T14:03:43.839Z,22.63
2023-02-21T14:06:10.918Z,23.67
2023-02-21T14:09:11.988Z,23.00
2023-02-21T14:11:52.390Z,18.93
2023-02-21T14:14:32.836Z,19.50
2023-02-21T14:17:03.849Z,16.47
2023-02-21T14:19:30.935Z,23.17
2023-02-21T14:22:05.037Z,33.20
2023-02-21T14:24:36.619Z,20.33
2023-02-21T14:27:26.157Z,22.00
2023-02-21T14:30:00.693Z,18.00
2023-02-21T14:32:54.462Z,38.80
2023-02-21T14:35:47.168Z,24.87
2023-02-21T14:38:24.401Z,21.90
2023-02-21T14:41:09.721Z,24.73
2023-02-21T14:43:57.605Z,21.60
2023-02-21T14:46:45.077Z,26.87
2023-02-21T14:49:18.219Z,27.50
2023-02-21T14:52:00.387Z,22.80
2023-02-21T14:55:04.935Z,23.50
2023-02-21T14:58:07.079Z,20.00
2023-02-21T15:01:04.676Z,23.63
2023-02-21T15:04:02.244Z,20.25
2023-02-21T15:06:32.071Z,22.83
2023-02-21T15:09:12.992Z,20.27
2023-02-21T15:11:41.304Z,20.47
2023-02-21T15:14:23.620Z,19.47
2023-02-21T15:16:55.661Z,20.67
2023-02-21T15:19:30.310Z,21.63
2023-02-21T15:22:18.951Z,20.03
2023-02-21T15:25:10.202Z,21.83
2023-02-21T15:27:58.290Z,19.10
2023-02-21T15:30:33.397Z,17.93
2023-02-21T15:33:05.587Z,18.73
2023-02-21T15:35:43.353Z,19.83
2023-02-21T15:38:20.716Z,21.60
2023-02-21T15:40:49.482Z,19.87
2023-02-21T15:43:25.659Z,19.57
2023-02-21T15:45:57.307Z,18.33
2023-02-21T15:48:24.663Z,18.67
2023-02-21T15:50:52.267Z,21.37
2023-02-21T15:53:20.847Z,21.97
2023-02-21T15:55:49.635Z,18.43
2023-02-21T15:58:23.968Z,19.27
2023-02-21T16:01:07.884Z,23.10
2023-02-21T16:03:36.629Z,23.10
2023-02-21T16:06:25.180Z,21.13
2023-02-21T16:08:58.801Z,20.77
2023-02-21T16:11:39.160Z,25.43
2023-02-21T16:14:07.695Z,16.43
2023-02-21T16:16:35.970Z,21.97
2023-02-21T16:19:03.095Z,20.33
2023-02-21T16:21:30.319Z,21.97
2023-02-21T16:23:57.971Z,24.73
2023-02-21T16:26:28.422Z,27.50
2023-02-21T16:29:00.140Z,23.77
2023-02-21T16:31:30.873Z,19.17
2023-02-21T16:33:58.332Z,18.03
2023-02-21T16:36:32.122Z,19.53
2023-02-21T16:38:59.589Z,18.63
2023-02-21T16:41:27.259Z,19.97
2023-02-21T16:43:54.374Z,23.57
2023-02-21T16:46:28.409Z,21.13
2023-02-21T16:48:57.392Z,21.53
2023-02-21T16:51:24.651Z,23.30
2023-02-21T16:53:51.819Z,19.10
2023-02-21T16:56:19.068Z,18.47
2023-02-21T16:58:51.430Z,21.57
2023-02-21T17:01:28.365Z,22.67
2023-02-21T17:03:55.868Z,20.43
2023-02-21T17:06:26.362Z,23.43
2023-02-21T17:08:53.755Z,22.70
2023-02-21T17:11:23.408Z,27.33
2023-02-21T17:13:51.918Z,20.23
2023-02-21T17:16:19.649Z,22.13
2023-02-21T17:18:47.259Z,24.73
2023-02-21T17:21:14.778Z,22.73
2023-02-21T17:23:42.334Z,26.57
2023-02-21T17:26:09.802Z,22.47
2023-02-21T17:28:39.794Z,23.57
2023-02-21T17:31:07.298Z,21.10
2023-02-21T17:33:35.727Z,22.50
2023-02-21T17:36:03.052Z,26.70
2023-02-21T17:38:30.177Z,20.70
2023-02-21T17:40:57.852Z,19.53
2023-02-21T17:43:25.073Z,22.43
2023-02-21T17:45:52.175Z,25.47
2023-02-21T17:48:19.533Z,20.27
2023-02-21T17:50:46.636Z,20.67
2023-02-21T17:53:13.676Z,20.53
2023-02-21T17:56:24.059Z,22.03
2023-02-21T17:58:53.765Z,34.40
2023-02-21T18:01:21.672Z,25.03
2023-02-21T18:03:49.071Z,24.20
2023-02-21T18:06:23.733Z,26.17
2023-02-21T18:08:53.227Z,27.90
2023-02-21T18:11:23.686Z,24.63
2023-02-21T18:14:02.169Z,24.23
2023-02-21T18:16:32.768Z,24.43
2023-02-21T18:19:00.032Z,24.30
2023-02-21T18:21:30.274Z,25.17
2023-02-21T18:23:59.915Z,22.37
2023-02-21T18:26:30.515Z,24.50
2023-02-21T18:29:00.226Z,27.90
2023-02-21T18:31:28.324Z,24.93
2023-02-21T18:33:55.623Z,24.83
2023-02-21T18:36:22.743Z,23.93
2023-02-21T18:38:52.032Z,19.70
2023-02-21T18:41:32.440Z,24.50
2023-02-21T18:44:00.449Z,23.40
2023-02-21T18:46:31.730Z,23.13
2023-02-21T18:49:03.783Z,21.83
2023-02-21T18:51:35.975Z,19.80
2023-02-21T18:54:08.500Z,23.50
2023-02-21T18:56:36.252Z,21.67
2023-02-21T18:59:06.366Z,23.80
2023-02-21T19:01:35.029Z,23.43
2023-02-21T19:04:03.818Z,23.13
2023-02-21T19:06:32.539Z,24.63
2023-02-21T19:09:00.529Z,21.60
2023-02-21T19:11:30.727Z,19.87
2023-02-21T19:14:00.235Z,24.17
2023-02-21T19:16:28.589Z,24.03
2023-02-21T19:19:03.597Z,24.83
2023-02-21T19:21:32.119Z,23.33
2023-02-21T19:24:04.280Z,23.67
2023-02-21T19:26:34.340Z,26.87
2023-02-21T19:29:02.650Z,27.87
2023-02-21T19:31:31.698Z,24.17
2023-02-21T19:34:04.465Z,26.03
2023-02-21T19:36:32.147Z,21.93
2023-02-21T19:39:00.170Z,22.07
2023-02-21T19:41:28.348Z,21.27
2023-02-21T19:43:59.748Z,21.30
2023-02-21T19:46:28.600Z,22.40
2023-02-21T19:49:04.361Z,19.07
2023-02-21T19:51:38.769Z,20.58
2023-02-21T19:54:13.485Z,19.97
2023-02-21T19:56:52.422Z,22.37
2023-02-21T19:59:19.708Z,26.30
2023-02-21T20:01:47.280Z,20.60
2023-02-21T20:04:16.298Z,19.63
2023-02-21T20:06:45.404Z,22.33
2023-02-21T20:09:12.818Z,24.60
2023-02-21T20:11:40.588Z,23.03
2023-02-21T20:14:09.092Z,21.73
2023-02-21T20:16:40.249Z,23.07
2023-02-21T20:19:08.461Z,24.27
2023-02-21T20:21:36.003Z,23.20
2023-02-21T20:24:03.952Z,23.73
2023-02-21T20:26:31.201Z,21.80
2023-02-21T20:29:00.488Z,23.63
2023-02-21T20:31:31.386Z,23.33
2023-02-21T20:34:03.142Z,25.23
2023-02-21T20:36:33.998Z,19.43
2023-02-21T20:39:01.509Z,18.83
2023-02-21T20:41:31.296Z,22.30
2023-02-21T20:43:59.340Z,20.93
2023-02-21T20:46:32.573Z,21.90
2023-02-21T20:49:02.050Z,22.83
2023-02-21T20:51:34.850Z,26.40
2023-02-21T20:54:02.006Z,22.83
2023-02-21T20:56:40.736Z,20.80
2023-02-21T20:59:16.013Z,24.27
2023-02-21T21:01:51.314Z,24.03
2023-02-21T21:04:26.715Z,25.53
2023-02-21T21:07:00.885Z,28.43
2023-02-21T21:09:34.617Z,25.97
2023-02-21T21:12:10.754Z,28.40
2023-02-21T21:14:43.147Z,22.10
2023-02-21T21:17:13.509Z,24.50
2023-02-21T21:19:42.325Z,21.03
2023-02-21T21:22:13.091Z,26.33
2023-02-21T21:24:40.731Z,21.93
2023-02-21T21:27:10.301Z,19.27
2023-02-21T21:29:39.112Z,20.80
2023-02-21T21:32:09.488Z,20.77
2023-02-21T21:34:39.129Z,24.70
2023-02-21T21:37:06.347Z,28.23
2023-02-21T21:39:35.524Z,28.57
2023-02-21T21:42:08.880Z,24.10
2023-02-21T21:44:38.316Z,23.77
2023-02-21T21:47:06.389Z,27.73
2023-02-21T21:49:37.482Z,27.23
2023-02-21T21:52:05.273Z,25.33
2023-02-21T21:54:36.257Z,26.37
2023-02-21T21:57:05.667Z,24.60
2023-02-21T21:59:32.997Z,27.93
2023-02-21T22:02:00.299Z,22.03
2023-02-21T22:04:27.848Z,24.60
2023-02-21T22:06:56.806Z,23.80
2023-02-21T22:09:25.800Z,22.73
2023-02-21T22:11:53.842Z,26.57
2023-02-21T22:14:22.925Z,22.43
2023-02-21T22:16:52.393Z,25.73
2023-02-21T22:19:23.355Z,29.53
2023-02-21T22:21:54.836Z,24.30
2023-02-21T22:24:24.094Z,25.77
2023-02-21T22:26:55.658Z,23.77
2023-02-21T22:29:23.295Z,25.23
2023-02-21T22:31:52.169Z,23.97
2023-02-21T22:34:25.474Z,24.17
2023-02-21T22:36:57.992Z,24.67
2023-02-21T22:39:26.439Z,24.07
2023-02-21T22:41:54.448Z,25.37
2023-02-21T22:44:25.087Z,31.03
2023-02-21T22:47:00.011Z,25.80
2023-02-21T22:49:27.857Z,29.00
2023-02-21T22:51:57.885Z,22.63
2023-02-21T22:54:26.807Z,22.57
2023-02-21T22:56:59.808Z,26.90
2023-02-21T22:59:26.884Z,22.30
2023-02-21T23:01:53.970Z,26.07
2023-02-21T23:04:37.457Z,23.73
2023-02-21T23:07:05.154Z,20.20
2023-02-21T23:09:37.034Z,22.77
2023-02-21T23:12:04.576Z,27.23
2023-02-21T23:14:34.878Z,28.37
2023-02-21T23:17:02.637Z,22.80
2023-02-21T23:19:30.406Z,26.93
2023-02-21T23:22:00.218Z,26.13
2023-02-21T23:24:28.399Z,29.73
2023-02-21T23:26:55.638Z,30.17
2023-02-21T23:29:25.718Z,29.23
2023-02-21T23:31:58.124Z,26.10
2023-02-21T23:34:40.508Z,26.00
2023-02-21T23:37:09.471Z,28.13
2023-02-21T23:39:36.603Z,28.77
2023-02-21T23:42:03.853Z,25.67
2023-02-21T23:44:36.262Z,25.90
2023-02-21T23:47:06.142Z,27.73
2023-02-21T23:49:33.722Z,24.90
2023-02-21T23:52:02.044Z,23.17
2023-02-21T23:54:29.414Z,29.10
2023-02-21T23:57:00.840Z,25.80
2023-02-21T23:59:28.748Z,29.17
